Tse Bonita, Arizona
Current Conditions -  °F | °C
As of 5:53 PM on Thursday 27 Nov 2014 (Local Time) from KGUP Reporting Station
Clear Clear  
Wind Chill: 44°   Ceiling: Unl
Heat Index: 47°   Visibility: 10mi
Dew Point:   Wind: 6mph
Humidity: 21%   Direction: 100°E
Pressure: 30.37"   Gusts: NA
Location:  35.6736°N, 109.05°W
Report Text: KGUP 280053Z AUTO 10005KT 10SM CLR 08/M13 A3037 RMK AO2 SLP301 T00831128
Loading
Personal Weather Stations






























Interactive Weather Map New forecast layout! Learn more

10-Day Weather Forecast

Advertisements
Track Severe Weather on mobile